createdAt,value
2023-01-19T00:02:23.985Z,83.03
2023-01-19T00:05:30.309Z,82.85
2023-01-19T00:08:55.825Z,82.85
2023-01-19T00:12:19.894Z,82.66
2023-01-19T00:15:40.606Z,82.54
2023-01-19T00:19:04.732Z,83.02
2023-01-19T00:22:31.342Z,83.03
2023-01-19T00:25:43.875Z,82.52
2023-01-19T00:29:08.733Z,82.97
2023-01-19T00:32:32.875Z,82.92
2023-01-19T00:36:08.170Z,83.02
2023-01-19T00:39:24.232Z,83.52
2023-01-19T00:42:44.261Z,83.39
2023-01-19T00:45:52.583Z,82.82
2023-01-19T00:48:57.492Z,82.95
2023-01-19T00:52:05.443Z,82.41
2023-01-19T00:55:11.023Z,82.64
2023-01-19T00:58:26.988Z,82.73
2023-01-19T01:01:55.534Z,82.72
2023-01-19T01:05:19.446Z,82.12
2023-01-19T01:09:03.795Z,81.99
2023-01-19T01:12:24.544Z,82.47
2023-01-19T01:15:37.333Z,82.69
2023-01-19T01:18:40.727Z,83.15
2023-01-19T01:21:55.909Z,83.05
2023-01-19T01:25:13.616Z,82.92
2023-01-19T01:28:29.479Z,82.33
2023-01-19T01:31:51.402Z,82.59
2023-01-19T01:35:11.998Z,82.64
2023-01-19T01:38:22.171Z,82.57
2023-01-19T01:41:31.662Z,83.02
2023-01-19T01:44:52.673Z,82.59
2023-01-19T01:48:22.823Z,82.41
2023-01-19T01:52:01.403Z,82.51
2023-01-19T01:55:20.112Z,82.72
2023-01-19T01:58:40.899Z,81.89
2023-01-19T02:02:04.242Z,81.78
2023-01-19T02:05:43.527Z,82.19
2023-01-19T02:09:43.862Z,82.41
2023-01-19T02:13:21.647Z,81.93
2023-01-19T02:16:34.389Z,82.09
2023-01-19T02:19:47.930Z,82.41
2023-01-19T02:23:46.823Z,82.52
2023-01-19T02:27:20.998Z,82.90
2023-01-19T02:30:45.919Z,82.81
2023-01-19T02:33:54.755Z,82.34
2023-01-19T02:37:28.849Z,82.32
2023-01-19T02:40:57.773Z,82.53
2023-01-19T02:44:13.984Z,81.91
2023-01-19T02:47:32.001Z,81.51
2023-01-19T02:50:56.230Z,81.46
2023-01-19T02:54:18.158Z,82.01
2023-01-19T02:57:49.214Z,82.50
2023-01-19T03:01:38.970Z,82.45
2023-01-19T03:05:05.920Z,81.74
2023-01-19T03:08:38.441Z,81.74
2023-01-19T03:11:51.685Z,81.45
2023-01-19T03:15:02.526Z,81.63
2023-01-19T03:18:15.452Z,81.13
2023-01-19T03:21:22.307Z,81.22
2023-01-19T03:24:29.445Z,81.47
2023-01-19T03:27:56.084Z,81.07
2023-01-19T03:31:31.127Z,81.38
2023-01-19T03:34:51.128Z,81.67
2023-01-19T03:38:11.215Z,81.78
2023-01-19T03:41:45.086Z,81.25
2023-01-19T03:45:07.250Z,81.66
2023-01-19T03:48:18.337Z,81.63
2023-01-19T03:51:40.490Z,81.47
2023-01-19T03:54:50.885Z,81.43
2023-01-19T03:58:14.124Z,80.96
2023-01-19T04:01:43.253Z,81.53
2023-01-19T04:05:05.189Z,80.55
2023-01-19T04:08:34.044Z,80.66
2023-01-19T04:11:58.045Z,80.41
2023-01-19T04:15:19.059Z,80.51
2023-01-19T04:18:42.153Z,80.35
2023-01-19T04:22:04.284Z,80.31
2023-01-19T04:25:25.950Z,80.32
2023-01-19T04:28:45.220Z,79.95
2023-01-19T04:32:10.310Z,80.00
2023-01-19T04:35:14.439Z,78.98
2023-01-19T04:38:18.236Z,78.88
2023-01-19T04:41:27.158Z,79.23
2023-01-19T04:44:43.432Z,78.58
2023-01-19T04:48:05.947Z,78.64
2023-01-19T04:51:19.489Z,78.67
2023-01-19T04:54:23.111Z,78.54
2023-01-19T04:57:33.433Z,78.65
2023-01-19T05:00:40.163Z,78.45
2023-01-19T05:04:01.193Z,78.32
2023-01-19T05:07:14.322Z,78.79
2023-01-19T05:10:20.314Z,77.95
2023-01-19T05:13:33.840Z,78.44
2023-01-19T05:16:51.959Z,78.67
2023-01-19T05:20:03.989Z,78.17
2023-01-19T05:23:28.543Z,79.06
2023-01-19T05:26:55.612Z,78.48
2023-01-19T05:30:11.540Z,78.44
2023-01-19T05:33:35.780Z,78.86
2023-01-19T05:37:06.682Z,79.38
2023-01-19T05:40:23.611Z,79.18
2023-01-19T05:43:35.599Z,78.89
2023-01-19T05:46:58.869Z,79.29
2023-01-19T05:50:05.408Z,78.78
2023-01-19T05:53:23.991Z,78.64
2023-01-19T05:56:37.282Z,78.41
2023-01-19T05:59:41.886Z,77.08
2023-01-19T06:02:53.838Z,77.55
2023-01-19T06:06:01.532Z,77.30
2023-01-19T06:09:10.790Z,77.68
2023-01-19T06:12:27.766Z,77.93
2023-01-19T06:15:44.708Z,78.34
2023-01-19T06:19:01.552Z,78.70
2023-01-19T06:22:24.690Z,79.45
2023-01-19T06:26:01.755Z,79.48
2023-01-19T06:29:18.670Z,79.90
2023-01-19T06:32:34.935Z,79.71
2023-01-19T06:36:00.787Z,79.67
2023-01-19T06:39:14.612Z,79.74
2023-01-19T06:42:23.912Z,79.44
2023-01-19T06:45:34.405Z,79.23
2023-01-19T06:48:49.650Z,79.02
2023-01-19T06:52:13.727Z,78.86
2023-01-19T06:55:36.632Z,78.87
2023-01-19T06:58:55.345Z,78.52
2023-01-19T07:07:18.807Z,78.61
2023-01-19T07:11:26.101Z,78.58
2023-01-19T07:14:24.397Z,79.39
2023-01-19T07:17:35.252Z,79.09
2023-01-19T07:20:42.060Z,78.76
2023-01-19T07:24:00.475Z,79.17
2023-01-19T07:27:34.467Z,79.68
2023-01-19T07:30:59.753Z,79.22
2023-01-19T07:34:27.799Z,78.99
2023-01-19T07:37:36.140Z,78.39
2023-01-19T07:41:03.811Z,78.29
2023-01-19T07:44:36.426Z,78.72
2023-01-19T07:47:40.612Z,79.09
2023-01-19T07:57:01.631Z,78.97
2023-01-19T08:00:19.007Z,77.75
2023-01-19T08:03:28.685Z,78.53
2023-01-19T08:06:39.500Z,77.71
2023-01-19T08:09:44.716Z,78.13
2023-01-19T08:13:31.952Z,77.83
2023-01-19T08:16:36.746Z,78.66
2023-01-19T08:19:53.452Z,78.19
2023-01-19T08:23:05.712Z,78.31
2023-01-19T08:26:25.134Z,78.45
2023-01-19T08:29:34.045Z,77.84
2023-01-19T08:32:39.008Z,78.28
2023-01-19T08:35:55.813Z,78.12
2023-01-19T08:43:41.059Z,77.76
2023-01-19T08:53:12.960Z,78.50
2023-01-19T09:02:17.541Z,78.63
2023-01-19T09:05:51.343Z,79.03
2023-01-19T09:10:04.505Z,78.97
2023-01-19T09:13:49.518Z,80.57
2023-01-19T09:21:59.374Z,80.33
2023-01-19T09:25:28.525Z,79.20
2023-01-19T09:28:49.615Z,79.90
2023-01-19T09:32:25.913Z,80.14
2023-01-19T09:36:27.431Z,80.05
2023-01-19T09:41:08.901Z,80.48
2023-01-19T09:45:42.384Z,80.94
2023-01-19T09:49:35.219Z,80.81
2023-01-19T09:53:21.477Z,80.51
2023-01-19T10:02:19.528Z,81.25
2023-01-19T10:06:07.676Z,82.74
2023-01-19T10:14:41.971Z,81.31
2023-01-19T10:28:46.174Z,81.22
2023-01-19T10:52:03.566Z,81.57
2023-01-19T10:55:23.904Z,82.26
2023-01-19T10:58:31.304Z,81.80
2023-01-19T11:02:42.384Z,81.85
2023-01-19T11:10:23.519Z,82.81
2023-01-19T11:19:27.849Z,82.75
2023-01-19T11:23:29.012Z,82.23
2023-01-19T11:27:26.045Z,83.32
2023-01-19T11:31:14.703Z,82.29
2023-01-19T11:34:33.498Z,82.04
2023-01-19T11:38:03.817Z,82.14
2023-01-19T11:41:20.759Z,82.26
2023-01-19T11:44:40.130Z,82.96
2023-01-19T11:48:17.581Z,82.05
2023-01-19T11:51:36.830Z,82.42
2023-01-19T11:55:38.046Z,82.74
2023-01-19T11:59:01.282Z,82.78
2023-01-19T12:02:58.456Z,82.59
2023-01-19T12:07:01.791Z,81.38
2023-01-19T12:10:22.697Z,81.44
2023-01-19T12:20:02.350Z,81.74
2023-01-19T12:23:12.025Z,81.89
2023-01-19T12:26:43.054Z,81.52
2023-01-19T12:30:04.385Z,81.48
2023-01-19T12:33:26.398Z,81.70
2023-01-19T12:36:45.857Z,82.30
2023-01-19T12:40:34.885Z,81.14
2023-01-19T12:43:40.841Z,82.06
2023-01-19T12:47:06.742Z,81.45
2023-01-19T12:50:46.374Z,81.90
2023-01-19T12:54:35.015Z,82.11
2023-01-19T13:07:19.838Z,80.90
2023-01-19T13:10:59.945Z,80.64
2023-01-19T13:14:03.689Z,80.26
2023-01-19T13:27:38.772Z,80.37
2023-01-19T13:31:04.763Z,80.11
2023-01-19T13:34:15.230Z,80.45
2023-01-19T13:38:01.910Z,80.13
2023-01-19T13:41:05.203Z,79.64
2023-01-19T13:44:29.471Z,79.75
2023-01-19T13:47:44.555Z,81.70
2023-01-19T13:56:33.968Z,79.93
2023-01-19T14:04:33.141Z,80.31
2023-01-19T14:08:18.809Z,80.45
2023-01-19T14:11:25.012Z,80.76
2023-01-19T14:25:39.950Z,81.73
2023-01-19T14:28:51.288Z,81.00
2023-01-19T14:32:00.961Z,81.62
2023-01-19T14:35:05.095Z,81.87
2023-01-19T14:38:14.597Z,81.80
2023-01-19T14:41:30.863Z,81.16
2023-01-19T14:44:52.433Z,81.33
2023-01-19T14:48:17.886Z,81.87
2023-01-19T14:51:37.549Z,80.85
2023-01-19T14:54:54.521Z,80.20
2023-01-19T14:58:33.890Z,80.06
2023-01-19T15:01:44.638Z,80.59
2023-01-19T15:05:10.739Z,80.41
2023-01-19T15:08:29.472Z,80.21
2023-01-19T15:11:45.284Z,79.82
2023-01-19T15:15:02.767Z,79.67
2023-01-19T15:18:15.696Z,79.09
2023-01-19T15:21:23.857Z,78.81
2023-01-19T15:24:37.024Z,78.83
2023-01-19T15:27:58.918Z,78.75
2023-01-19T15:31:16.255Z,78.74
2023-01-19T15:34:32.296Z,79.26
2023-01-19T15:37:53.136Z,79.94
2023-01-19T15:41:18.972Z,79.87
2023-01-19T15:44:42.130Z,79.99
2023-01-19T15:48:09.132Z,79.91
2023-01-19T15:51:37.142Z,79.73
2023-01-19T15:54:57.161Z,79.85
2023-01-19T15:58:13.898Z,80.01
2023-01-19T16:01:40.271Z,79.64
2023-01-19T16:05:01.842Z,79.89
2023-01-19T16:08:18.844Z,79.38
2023-01-19T16:11:42.080Z,79.96
2023-01-19T16:15:03.159Z,79.86
2023-01-19T16:18:28.292Z,80.21
2023-01-19T16:21:54.960Z,79.65
2023-01-19T16:25:16.931Z,78.80
2023-01-19T16:28:34.194Z,79.06
2023-01-19T16:31:54.110Z,79.29
2023-01-19T16:35:17.466Z,79.15
2023-01-19T16:38:33.042Z,79.12
2023-01-19T16:42:08.004Z,78.84
2023-01-19T16:45:32.200Z,78.83
2023-01-19T16:48:54.113Z,78.81
2023-01-19T16:52:17.079Z,78.56
2023-01-19T16:55:38.313Z,77.83
2023-01-19T16:58:42.206Z,78.54
2023-01-19T17:01:46.618Z,78.56
2023-01-19T17:05:00.795Z,78.67
2023-01-19T17:08:03.827Z,78.32
2023-01-19T17:11:13.311Z,78.57
2023-01-19T17:14:20.582Z,77.67
2023-01-19T17:17:32.972Z,78.26
2023-01-19T17:20:49.118Z,78.32
2023-01-19T17:24:08.914Z,78.15
2023-01-19T17:28:51.537Z,77.74
2023-01-19T17:31:58.948Z,77.56
2023-01-19T17:35:20.540Z,77.68
2023-01-19T17:38:41.579Z,77.36
2023-01-19T17:41:51.708Z,77.02
2023-01-19T17:45:09.269Z,78.15
2023-01-19T17:48:26.015Z,79.33
2023-01-19T17:51:48.808Z,77.74
2023-01-19T17:55:11.542Z,78.20
2023-01-19T17:58:15.710Z,77.83
2023-01-19T18:01:28.619Z,77.91
2023-01-19T18:04:39.842Z,77.83
2023-01-19T18:07:43.318Z,77.41
2023-01-19T18:10:57.701Z,78.74
2023-01-19T18:14:11.777Z,77.39
2023-01-19T18:17:29.722Z,77.96
2023-01-19T18:20:50.705Z,78.16
2023-01-19T18:24:00.193Z,78.96
2023-01-19T18:27:24.715Z,78.38
2023-01-19T18:30:57.714Z,79.70
2023-01-19T18:34:14.893Z,79.67
2023-01-19T18:37:33.457Z,78.95
2023-01-19T18:40:56.690Z,78.28
2023-01-19T18:44:27.750Z,78.40
2023-01-19T18:47:50.795Z,79.03
2023-01-19T18:51:13.735Z,79.01
2023-01-19T18:54:30.976Z,78.59
2023-01-19T18:57:48.591Z,79.48
2023-01-19T19:01:13.797Z,78.89
2023-01-19T19:04:42.695Z,78.61
2023-01-19T19:08:03.713Z,78.68
2023-01-19T19:11:23.931Z,77.94
2023-01-19T19:14:40.867Z,77.68
2023-01-19T19:17:59.756Z,76.81
2023-01-19T19:21:07.575Z,77.58
2023-01-19T19:24:13.520Z,78.91
2023-01-19T19:27:24.225Z,78.10
2023-01-19T19:30:47.560Z,78.33
2023-01-19T19:34:09.491Z,79.26
2023-01-19T19:37:29.541Z,78.21
2023-01-19T19:41:00.167Z,78.90
2023-01-19T19:44:21.215Z,78.72
2023-01-19T19:47:44.571Z,77.69
2023-01-19T19:51:17.604Z,79.23
2023-01-19T19:54:32.340Z,78.98
2023-01-19T19:57:36.203Z,77.84
2023-01-19T20:00:40.200Z,78.05
2023-01-19T20:03:56.427Z,78.31
2023-01-19T20:07:07.967Z,77.90
2023-01-19T20:10:11.577Z,77.52
2023-01-19T20:13:19.305Z,78.24
2023-01-19T20:16:26.735Z,78.14
2023-01-19T20:19:45.767Z,78.07
2023-01-19T20:22:56.095Z,78.58
2023-01-19T20:26:05.107Z,79.04
2023-01-19T20:29:10.412Z,78.58
2023-01-19T20:32:26.769Z,78.70
2023-01-19T20:35:43.357Z,79.04
2023-01-19T20:38:50.837Z,78.21
2023-01-19T20:41:54.850Z,78.62
2023-01-19T20:45:09.574Z,78.11
2023-01-19T20:48:28.239Z,77.69
2023-01-19T20:51:51.502Z,78.23
2023-01-19T20:54:54.768Z,78.88
2023-01-19T20:58:02.681Z,78.36
2023-01-19T21:01:24.939Z,78.20
2023-01-19T21:04:30.545Z,77.73
2023-01-19T21:07:46.710Z,79.22
2023-01-19T21:11:03.477Z,78.74
2023-01-19T21:14:30.349Z,77.99
2023-01-19T21:17:46.762Z,77.83
2023-01-19T21:21:28.489Z,78.46
2023-01-19T21:24:40.005Z,79.13
2023-01-19T21:27:50.946Z,79.17
2023-01-19T21:31:14.485Z,78.68
2023-01-19T21:34:43.189Z,78.58
2023-01-19T21:38:07.269Z,78.62
2023-01-19T21:41:16.769Z,78.97
2023-01-19T21:44:26.594Z,78.72
2023-01-19T21:47:36.532Z,79.05
2023-01-19T21:50:43.376Z,77.74
2023-01-19T21:54:02.857Z,78.12
2023-01-19T21:57:06.442Z,77.18
2023-01-19T22:00:11.126Z,77.23
2023-01-19T22:03:32.081Z,77.04
2023-01-19T22:06:49.214Z,77.70
2023-01-19T22:09:58.921Z,78.74
2023-01-19T22:13:02.196Z,77.92
2023-01-19T22:16:18.680Z,77.69
2023-01-19T22:19:35.120Z,77.35
2023-01-19T22:22:41.601Z,77.20
2023-01-19T22:25:45.580Z,77.08
2023-01-19T22:28:53.491Z,77.46
2023-01-19T22:32:09.045Z,78.41
2023-01-19T22:35:35.084Z,77.17
2023-01-19T22:38:51.948Z,76.98
2023-01-19T22:42:14.987Z,76.71
2023-01-19T22:45:42.099Z,77.37
2023-01-19T22:49:06.963Z,77.26
2023-01-19T22:52:28.040Z,78.20
2023-01-19T22:55:48.961Z,76.95
2023-01-19T22:59:11.959Z,77.89
2023-01-19T23:02:28.147Z,77.38
2023-01-19T23:05:49.028Z,77.37
2023-01-19T23:09:19.168Z,77.25
2023-01-19T23:12:39.024Z,77.00
2023-01-19T23:16:02.207Z,76.81
2023-01-19T23:19:20.054Z,76.83
2023-01-19T23:22:30.889Z,77.48
2023-01-19T23:25:38.126Z,77.52
2023-01-19T23:28:44.167Z,77.80
2023-01-19T23:32:01.005Z,76.36
2023-01-19T23:35:11.876Z,77.13
2023-01-19T23:38:28.181Z,77.37
2023-01-19T23:41:44.857Z,78.34
2023-01-19T23:44:48.502Z,76.58
2023-01-19T23:47:55.400Z,76.45
2023-01-19T23:51:17.159Z,77.11
2023-01-19T23:54:36.929Z,76.94
2023-01-19T23:57:43.969Z,76.45
